createdAt,value
2022-10-02T00:00:45.282Z,12.32
2022-10-02T00:01:45.341Z,12.31
2022-10-02T00:02:45.359Z,12.29
2022-10-02T00:03:45.350Z,12.35
2022-10-02T00:04:45.376Z,12.29
2022-10-02T00:05:45.397Z,12.34
2022-10-02T00:06:45.417Z,12.29
2022-10-02T00:07:45.444Z,12.29
2022-10-02T00:08:45.463Z,12.31
2022-10-02T00:09:45.489Z,12.29
2022-10-02T00:10:45.512Z,12.31
2022-10-02T00:11:45.535Z,12.34
2022-10-02T00:12:45.561Z,12.31
2022-10-02T00:13:45.580Z,12.35
2022-10-02T00:14:45.610Z,12.34
2022-10-02T00:15:45.626Z,12.29
2022-10-02T00:16:45.685Z,12.41
2022-10-02T00:17:45.680Z,12.32
2022-10-02T00:18:45.701Z,12.32
2022-10-02T00:19:45.712Z,12.38
2022-10-02T00:20:45.740Z,12.32
2022-10-02T00:21:45.764Z,12.41
2022-10-02T00:22:45.781Z,12.29
2022-10-02T00:23:45.808Z,12.28
2022-10-02T00:24:45.830Z,12.28
2022-10-02T00:25:45.854Z,12.37
2022-10-02T00:26:45.878Z,12.49
2022-10-02T00:27:45.966Z,12.38
2022-10-02T00:28:45.920Z,12.45
2022-10-02T00:29:45.939Z,12.41
2022-10-02T00:30:46.014Z,12.41
2022-10-02T00:31:46.030Z,12.50
2022-10-02T00:32:46.013Z,12.38
2022-10-02T00:33:46.033Z,12.46
2022-10-02T00:34:46.058Z,12.49
2022-10-02T00:35:46.077Z,12.35
2022-10-02T00:36:46.106Z,12.47
2022-10-02T00:37:46.118Z,12.46
2022-10-02T00:38:46.148Z,12.45
2022-10-02T00:39:46.166Z,12.42
2022-10-02T00:40:46.198Z,12.49
2022-10-02T00:41:46.218Z,12.42
2022-10-02T00:42:46.236Z,12.49
2022-10-02T00:43:46.259Z,12.39
2022-10-02T00:44:46.281Z,12.42
2022-10-02T00:45:46.351Z,12.45
2022-10-02T00:46:46.328Z,12.45
2022-10-02T00:47:46.347Z,12.39
2022-10-02T00:48:46.371Z,12.38
2022-10-02T00:49:46.399Z,12.41
2022-10-02T00:50:46.417Z,12.46
2022-10-02T00:51:46.439Z,12.41
2022-10-02T00:52:46.461Z,12.50
2022-10-02T00:53:46.484Z,12.50
2022-10-02T00:54:46.506Z,12.45
2022-10-02T00:55:46.530Z,12.50
2022-10-02T00:56:46.552Z,12.50
2022-10-02T00:57:46.592Z,12.45
2022-10-02T00:58:46.601Z,12.50
2022-10-02T00:59:46.621Z,12.49
2022-10-02T01:00:46.699Z,12.47
2022-10-02T01:01:46.721Z,12.53
2022-10-02T01:02:46.691Z,12.54
2022-10-02T01:03:46.716Z,12.49
2022-10-02T01:04:46.737Z,12.46
2022-10-02T01:05:46.758Z,12.41
2022-10-02T01:06:46.784Z,12.42
2022-10-02T01:07:46.799Z,12.54
2022-10-02T01:08:46.852Z,12.46
2022-10-02T01:09:46.849Z,12.42
2022-10-02T01:10:46.879Z,12.50
2022-10-02T01:11:46.894Z,12.45
2022-10-02T01:12:46.916Z,12.46
2022-10-02T01:13:46.941Z,12.52
2022-10-02T01:14:46.977Z,12.50
2022-10-02T01:15:46.987Z,12.52
2022-10-02T01:16:47.121Z,12.46
2022-10-02T01:17:47.030Z,12.47
2022-10-02T01:18:47.057Z,12.45
2022-10-02T01:19:47.072Z,12.50
2022-10-02T01:20:47.106Z,12.45
2022-10-02T01:21:47.121Z,12.45
2022-10-02T01:22:47.141Z,12.47
2022-10-02T01:23:47.176Z,12.50
2022-10-02T01:24:47.190Z,12.46
2022-10-02T01:25:47.209Z,12.52
2022-10-02T01:26:47.240Z,12.50
2022-10-02T01:27:47.280Z,12.49
2022-10-02T01:28:47.286Z,12.46
2022-10-02T01:29:47.301Z,12.54
2022-10-02T01:30:47.321Z,12.50
2022-10-02T01:31:47.374Z,12.54
2022-10-02T01:32:47.372Z,12.54
2022-10-02T01:33:47.391Z,12.52
2022-10-02T01:34:47.420Z,12.53
2022-10-02T01:35:47.439Z,12.62
2022-10-02T01:36:47.463Z,12.50
2022-10-02T01:37:47.490Z,12.57
2022-10-02T01:38:47.510Z,12.56
2022-10-02T01:39:47.526Z,12.57
2022-10-02T01:40:47.559Z,12.60
2022-10-02T01:41:47.576Z,12.62
2022-10-02T01:42:47.597Z,12.64
2022-10-02T01:43:47.619Z,12.65
2022-10-02T01:44:47.642Z,12.67
2022-10-02T01:45:47.772Z,12.65
2022-10-02T01:46:47.688Z,12.60
2022-10-02T01:47:47.706Z,12.57
2022-10-02T01:48:47.733Z,12.67
2022-10-02T01:49:47.756Z,12.65
2022-10-02T01:50:47.778Z,12.70
2022-10-02T01:51:47.802Z,12.68
2022-10-02T01:52:47.824Z,12.75
2022-10-02T01:53:47.857Z,12.74
2022-10-02T01:54:47.883Z,12.72
2022-10-02T01:55:47.894Z,12.79
2022-10-02T01:56:47.914Z,12.86
2022-10-02T01:57:47.937Z,12.92
2022-10-02T01:58:48.183Z,12.89
2022-10-02T01:59:47.985Z,12.95
2022-10-02T02:00:48.062Z,12.93
2022-10-02T02:01:48.074Z,12.97
2022-10-02T02:02:48.052Z,12.93
2022-10-02T02:03:48.076Z,13.05
2022-10-02T02:04:48.098Z,13.05
2022-10-02T02:05:48.123Z,13.04
2022-10-02T02:06:48.141Z,13.01
2022-10-02T02:07:48.169Z,13.12
2022-10-02T02:08:48.190Z,13.19
2022-10-02T02:09:48.214Z,13.14
2022-10-02T02:10:48.234Z,13.20
2022-10-02T02:11:48.256Z,13.20
2022-10-02T02:12:48.286Z,13.22
2022-10-02T02:13:48.313Z,13.22
2022-10-02T02:14:48.323Z,13.19
2022-10-02T02:15:48.355Z,13.15
2022-10-02T02:16:48.415Z,13.25
2022-10-02T02:17:48.401Z,13.33
2022-10-02T02:18:48.424Z,13.32
2022-10-02T02:19:48.445Z,13.29
2022-10-02T02:20:48.467Z,13.30
2022-10-02T02:21:48.489Z,13.29
2022-10-02T02:22:48.514Z,13.38
2022-10-02T02:23:48.539Z,13.38
2022-10-02T02:24:48.561Z,13.44
2022-10-02T02:25:48.585Z,13.45
2022-10-02T02:26:48.607Z,13.42
2022-10-02T02:27:48.674Z,13.44
2022-10-02T02:28:48.655Z,13.44
2022-10-02T02:29:48.681Z,13.41
2022-10-02T02:30:48.699Z,13.41
2022-10-02T02:31:48.748Z,13.44
2022-10-02T02:32:48.744Z,13.49
2022-10-02T02:33:48.769Z,13.44
2022-10-02T02:34:48.792Z,13.44
2022-10-02T02:35:48.815Z,13.51
2022-10-02T02:36:48.841Z,13.48
2022-10-02T02:37:48.862Z,13.55
2022-10-02T02:38:48.886Z,13.57
2022-10-02T02:39:48.910Z,13.59
2022-10-02T02:40:48.933Z,13.63
2022-10-02T02:41:48.957Z,13.57
2022-10-02T02:42:48.977Z,13.54
2022-10-02T02:43:49.002Z,13.52
2022-10-02T02:44:49.026Z,13.54
2022-10-02T02:45:49.132Z,13.51
2022-10-02T02:46:49.072Z,13.67
2022-10-02T02:47:49.099Z,13.59
2022-10-02T02:48:49.123Z,13.57
2022-10-02T02:49:49.145Z,13.54
2022-10-02T02:50:49.165Z,13.63
2022-10-02T02:51:49.185Z,13.59
2022-10-02T02:52:49.214Z,13.64
2022-10-02T02:53:49.239Z,13.60
2022-10-02T02:54:49.261Z,13.55
2022-10-02T02:55:49.282Z,13.64
2022-10-02T02:56:49.306Z,13.67
2022-10-02T02:57:49.333Z,13.62
2022-10-02T02:58:49.354Z,13.69
2022-10-02T02:59:49.377Z,13.64
2022-10-02T03:00:49.440Z,13.60
2022-10-02T03:01:49.460Z,13.70
2022-10-02T03:02:49.448Z,13.70
2022-10-02T03:03:49.471Z,13.69
2022-10-02T03:04:49.495Z,13.67
2022-10-02T03:05:49.518Z,13.75
2022-10-02T03:06:49.541Z,13.79
2022-10-02T03:07:49.565Z,13.64
2022-10-02T03:08:49.587Z,13.63
2022-10-02T03:09:49.614Z,13.67
2022-10-02T03:10:49.636Z,13.59
2022-10-02T03:11:49.662Z,13.64
2022-10-02T03:12:49.686Z,13.66
2022-10-02T03:13:49.707Z,13.62
2022-10-02T03:14:49.731Z,13.60
2022-10-02T03:15:49.808Z,13.67
2022-10-02T03:16:49.776Z,13.67
2022-10-02T03:17:49.805Z,13.69
2022-10-02T03:18:49.822Z,13.63
2022-10-02T03:19:49.849Z,13.66
2022-10-02T03:20:49.871Z,13.78
2022-10-02T03:21:49.894Z,13.75
2022-10-02T03:22:49.918Z,13.70
2022-10-02T03:23:49.940Z,13.75
2022-10-02T03:24:49.964Z,13.73
2022-10-02T03:25:49.990Z,13.77
2022-10-02T03:26:50.012Z,13.70
2022-10-02T03:27:50.080Z,13.64
2022-10-02T03:28:55.877Z,13.77
2022-10-02T03:29:50.082Z,13.78
2022-10-02T03:30:50.108Z,13.75
2022-10-02T03:31:50.158Z,13.64
2022-10-02T03:32:50.154Z,13.77
2022-10-02T03:33:50.183Z,13.71
2022-10-02T03:34:50.199Z,13.79
2022-10-02T03:35:50.225Z,13.64
2022-10-02T03:36:50.245Z,13.77
2022-10-02T03:37:50.276Z,13.75
2022-10-02T03:39:12.580Z,13.69
2022-10-02T03:39:50.318Z,13.71
2022-10-02T03:40:50.340Z,13.79
2022-10-02T03:41:50.365Z,13.73
2022-10-02T03:42:50.386Z,13.73
2022-10-02T03:43:50.412Z,13.71
2022-10-02T03:44:50.434Z,13.78
2022-10-02T03:45:51.836Z,13.73
2022-10-02T03:46:50.582Z,13.78
2022-10-02T03:47:50.503Z,13.70
2022-10-02T03:48:50.527Z,13.71
2022-10-02T03:49:50.552Z,13.77
2022-10-02T03:50:50.577Z,13.78
2022-10-02T03:51:50.596Z,13.73
2022-10-02T03:52:50.691Z,13.70
2022-10-02T03:53:50.646Z,13.55
2022-10-02T03:54:50.668Z,13.60
2022-10-02T03:55:50.693Z,13.64
2022-10-02T03:56:50.718Z,13.62
2022-10-02T03:57:50.739Z,13.55
2022-10-02T03:58:50.763Z,13.54
2022-10-02T03:59:50.786Z,13.55
2022-10-02T04:00:50.816Z,13.48
2022-10-02T04:01:50.888Z,13.49
2022-10-02T04:02:50.855Z,13.41
2022-10-02T04:03:50.940Z,13.32
2022-10-02T04:04:50.902Z,13.39
2022-10-02T04:05:50.925Z,13.32
2022-10-02T04:06:50.948Z,13.29
2022-10-02T04:07:52.921Z,13.28
2022-10-02T04:08:50.995Z,13.30
2022-10-02T04:09:51.020Z,13.32
2022-10-02T04:10:51.043Z,13.29
2022-10-02T04:11:51.062Z,13.29
2022-10-02T04:12:51.096Z,13.29
2022-10-02T04:13:51.114Z,13.28
2022-10-02T04:14:51.139Z,13.36
2022-10-02T04:15:51.208Z,13.29
2022-10-02T04:16:51.183Z,13.38
2022-10-02T04:17:53.754Z,13.33
2022-10-02T04:18:51.227Z,13.32
2022-10-02T04:19:51.254Z,13.33
2022-10-02T04:20:51.275Z,13.32
2022-10-02T04:21:51.298Z,13.42
2022-10-02T04:22:51.321Z,13.45
2022-10-02T04:23:51.354Z,13.42
2022-10-02T04:24:51.366Z,13.49
2022-10-02T04:25:51.397Z,13.46
2022-10-02T04:26:51.411Z,13.48
2022-10-02T04:27:51.460Z,13.52
2022-10-02T04:28:51.458Z,13.54
2022-10-02T04:29:51.488Z,13.51
2022-10-02T04:30:51.507Z,13.59
2022-10-02T04:31:51.554Z,13.64
2022-10-02T04:32:51.549Z,13.63
2022-10-02T04:33:51.581Z,13.69
2022-10-02T04:34:51.598Z,13.59
2022-10-02T04:35:51.622Z,13.70
2022-10-02T04:36:51.645Z,13.64
2022-10-02T04:37:51.669Z,13.75
2022-10-02T04:38:51.694Z,13.71
2022-10-02T04:39:51.716Z,13.70
2022-10-02T04:40:51.741Z,13.71
2022-10-02T04:41:51.765Z,13.66
2022-10-02T04:42:51.786Z,13.69
2022-10-02T04:43:51.811Z,13.63
2022-10-02T04:44:51.855Z,13.77
2022-10-02T04:45:51.948Z,13.62
2022-10-02T04:46:51.882Z,13.69
2022-10-02T04:47:51.906Z,13.70
2022-10-02T04:48:51.943Z,13.71
2022-10-02T04:49:51.955Z,13.81
2022-10-02T04:50:51.978Z,13.70
2022-10-02T04:51:51.999Z,13.66
2022-10-02T04:52:52.021Z,13.70
2022-10-02T04:53:52.049Z,13.73
2022-10-02T04:54:52.069Z,13.81
2022-10-02T04:55:52.097Z,13.73
2022-10-02T04:56:52.116Z,13.69
2022-10-02T04:57:52.142Z,13.71
2022-10-02T04:58:52.164Z,13.75
2022-10-02T04:59:52.189Z,13.70
2022-10-02T05:00:52.266Z,13.69
2022-10-02T05:01:52.326Z,13.67
2022-10-02T05:02:52.256Z,13.69
2022-10-02T05:03:52.280Z,13.71
2022-10-02T05:04:52.303Z,13.66
2022-10-02T05:05:52.327Z,13.70
2022-10-02T05:06:52.350Z,13.52
2022-10-02T05:07:52.373Z,13.52
2022-10-02T05:08:52.396Z,13.54
2022-10-02T05:09:52.423Z,13.54
2022-10-02T05:10:52.446Z,13.55
2022-10-02T05:11:52.468Z,13.55
2022-10-02T05:12:52.494Z,13.54
2022-10-02T05:13:52.515Z,13.51
2022-10-02T05:14:52.537Z,13.41
2022-10-02T05:15:52.616Z,13.46
2022-10-02T05:16:52.580Z,13.44
2022-10-02T05:17:52.603Z,13.48
2022-10-02T05:18:52.630Z,13.42
2022-10-02T05:19:52.653Z,13.44
2022-10-02T05:20:52.696Z,13.48
2022-10-02T05:21:52.700Z,13.26
2022-10-02T05:22:52.723Z,13.38
2022-10-02T05:23:52.749Z,13.30
2022-10-02T05:24:52.785Z,13.30
2022-10-02T05:25:52.792Z,13.30
2022-10-02T05:26:52.882Z,13.29
2022-10-02T05:27:52.881Z,13.33
2022-10-02T05:28:52.863Z,13.36
2022-10-02T05:29:52.884Z,13.33
2022-10-02T05:30:52.906Z,13.38
2022-10-02T05:31:53.025Z,13.33
2022-10-02T05:32:52.951Z,13.32
2022-10-02T05:33:52.979Z,13.39
2022-10-02T05:34:53.000Z,13.32
2022-10-02T05:35:53.024Z,13.39
2022-10-02T05:36:53.050Z,13.36
2022-10-02T05:37:53.070Z,13.41
2022-10-02T05:38:53.095Z,13.29
2022-10-02T05:39:53.115Z,13.48
2022-10-02T05:40:53.138Z,13.44
2022-10-02T05:41:53.162Z,13.44
2022-10-02T05:42:53.185Z,13.44
2022-10-02T05:43:53.210Z,13.44
2022-10-02T05:44:53.241Z,13.45
2022-10-02T05:45:53.258Z,13.46
2022-10-02T05:46:53.408Z,13.48
2022-10-02T05:47:53.301Z,13.52
2022-10-02T05:48:53.325Z,13.57
2022-10-02T05:49:53.345Z,13.54
2022-10-02T05:50:53.425Z,13.52
2022-10-02T05:51:53.393Z,13.55
2022-10-02T05:52:53.416Z,13.51
2022-10-02T05:53:53.438Z,13.59
2022-10-02T05:54:53.461Z,13.66
2022-10-02T05:55:53.480Z,13.69
2022-10-02T05:56:53.512Z,13.73
2022-10-02T05:57:53.533Z,13.75
2022-10-02T05:58:53.556Z,13.77
2022-10-02T05:59:53.574Z,13.75
2022-10-02T06:00:53.636Z,13.78
2022-10-02T06:01:53.662Z,13.73
2022-10-02T06:02:53.649Z,13.75
2022-10-02T06:03:53.673Z,13.81
2022-10-02T06:04:53.704Z,13.84
2022-10-02T06:05:53.721Z,13.91
2022-10-02T06:06:53.744Z,13.89
2022-10-02T06:07:53.769Z,13.87
2022-10-02T06:08:53.790Z,13.87
2022-10-02T06:09:53.818Z,13.89
2022-10-02T06:10:53.838Z,13.97
2022-10-02T06:11:53.864Z,13.95
2022-10-02T06:12:53.887Z,13.92
2022-10-02T06:13:53.910Z,13.91
2022-10-02T06:14:53.932Z,13.96
2022-10-02T06:15:53.957Z,14.04
2022-10-02T06:16:54.067Z,13.97
2022-10-02T06:17:54.010Z,14.03
2022-10-02T06:18:54.026Z,14.00
2022-10-02T06:19:54.051Z,14.06
2022-10-02T06:20:54.075Z,14.15
2022-10-02T06:21:54.101Z,14.10
2022-10-02T06:22:54.123Z,14.10
2022-10-02T06:23:54.147Z,14.10
2022-10-02T06:24:54.166Z,14.15
2022-10-02T06:25:54.194Z,14.17
2022-10-02T06:26:54.224Z,14.25
2022-10-02T06:27:54.301Z,14.28
2022-10-02T06:28:54.277Z,14.24
2022-10-02T06:29:54.289Z,14.32
2022-10-02T06:30:54.310Z,14.33
2022-10-02T06:31:54.460Z,14.39
2022-10-02T06:32:54.359Z,14.46
2022-10-02T06:33:54.382Z,14.47
2022-10-02T06:34:54.406Z,14.50
2022-10-02T06:35:54.432Z,14.62
2022-10-02T06:36:54.457Z,14.61
2022-10-02T06:37:54.477Z,14.70
2022-10-02T06:38:54.506Z,14.72
2022-10-02T06:39:54.525Z,14.75
2022-10-02T06:40:54.551Z,14.80
2022-10-02T06:41:54.581Z,14.80
2022-10-02T06:42:54.600Z,14.84
2022-10-02T06:43:54.623Z,14.81
2022-10-02T06:44:54.649Z,14.86
2022-10-02T06:45:54.739Z,14.94
2022-10-02T06:46:54.698Z,14.98
2022-10-02T06:47:54.721Z,14.99
2022-10-02T06:48:54.746Z,14.94
2022-10-02T06:49:54.771Z,14.98
2022-10-02T06:50:54.798Z,14.98
2022-10-02T06:51:54.819Z,14.99
2022-10-02T06:52:54.842Z,15.01
2022-10-02T06:53:54.868Z,14.92
2022-10-02T06:54:54.891Z,14.95
2022-10-02T06:55:54.915Z,14.99
2022-10-02T06:56:54.943Z,15.11
2022-10-02T06:57:54.966Z,15.10
2022-10-02T06:58:54.992Z,15.09
2022-10-02T06:59:55.015Z,15.14
2022-10-02T07:00:55.114Z,15.16
2022-10-02T07:01:57.325Z,15.25
2022-10-02T07:02:55.185Z,15.27
2022-10-02T07:03:55.130Z,15.17
2022-10-02T07:04:55.137Z,15.20
2022-10-02T07:05:55.163Z,15.28
2022-10-02T07:06:55.187Z,15.35
2022-10-02T07:07:55.210Z,15.34
2022-10-02T07:08:55.235Z,15.49
2022-10-02T07:09:55.262Z,15.47
2022-10-02T07:10:55.286Z,15.59
2022-10-02T07:11:55.310Z,15.59
2022-10-02T07:12:55.337Z,15.68
2022-10-02T07:13:55.359Z,15.72
2022-10-02T07:14:55.385Z,15.76
2022-10-02T07:15:55.465Z,15.86
2022-10-02T07:16:55.435Z,15.92
2022-10-02T07:17:55.458Z,16.07
2022-10-02T07:18:55.484Z,16.02
2022-10-02T07:19:55.512Z,16.02
2022-10-02T07:20:55.539Z,16.05
2022-10-02T07:21:55.561Z,15.87
2022-10-02T07:22:55.586Z,15.96
2022-10-02T07:23:58.901Z,15.97
2022-10-02T07:24:55.638Z,15.93
2022-10-02T07:25:55.673Z,15.94
2022-10-02T07:26:55.687Z,16.00
2022-10-02T07:27:55.738Z,16.00
2022-10-02T07:28:55.739Z,16.01
2022-10-02T07:29:55.766Z,16.04
2022-10-02T07:30:55.787Z,16.08
2022-10-02T07:31:55.881Z,15.97
2022-10-02T07:32:55.844Z,16.02
2022-10-02T07:33:55.863Z,16.00
2022-10-02T07:34:55.888Z,15.97
2022-10-02T07:35:55.913Z,16.09
2022-10-02T07:36:55.939Z,16.05
2022-10-02T07:37:55.964Z,16.00
2022-10-02T07:38:56.012Z,16.00
2022-10-02T07:39:56.013Z,16.04
2022-10-02T07:40:59.916Z,16.02
2022-10-02T07:41:56.065Z,16.02
2022-10-02T07:42:56.093Z,15.96
2022-10-02T07:43:56.117Z,16.02
2022-10-02T07:44:56.144Z,15.93
2022-10-02T07:45:56.246Z,15.97
2022-10-02T07:46:56.192Z,15.94
2022-10-02T07:47:56.215Z,16.02
2022-10-02T07:48:56.242Z,16.07
2022-10-02T07:49:56.267Z,16.09
2022-10-02T07:50:56.294Z,16.12
2022-10-02T07:51:56.318Z,16.23
2022-10-02T07:52:56.344Z,16.27
2022-10-02T07:53:56.368Z,16.15
2022-10-02T07:54:56.393Z,16.14
2022-10-02T07:55:56.420Z,16.17
2022-10-02T07:56:56.447Z,16.21
2022-10-02T07:57:56.473Z,16.20
2022-10-02T07:58:56.498Z,16.25
2022-10-02T07:59:56.520Z,16.17
2022-10-02T08:00:56.548Z,16.17
2022-10-02T08:01:56.602Z,16.17
2022-10-02T08:02:56.693Z,16.27
2022-10-02T08:03:56.622Z,16.20
2022-10-02T08:04:56.650Z,16.34
2022-10-02T08:05:56.675Z,16.33
2022-10-02T08:06:56.700Z,16.21
2022-10-02T08:07:56.727Z,16.14
2022-10-02T08:08:56.753Z,16.11
2022-10-02T08:09:56.780Z,16.17
2022-10-02T08:10:56.801Z,16.17
2022-10-02T08:11:56.827Z,16.17
2022-10-02T08:12:56.853Z,16.20
2022-10-02T08:13:56.880Z,16.24
2022-10-02T08:14:56.913Z,16.24
2022-10-02T08:15:56.976Z,16.21
2022-10-02T08:16:57.002Z,16.38
2022-10-02T08:17:58.791Z,16.34
2022-10-02T08:18:57.008Z,16.38
2022-10-02T08:19:57.030Z,16.43
2022-10-02T08:20:57.058Z,16.39
2022-10-02T08:21:57.082Z,16.41
2022-10-02T08:22:57.110Z,16.43
2022-10-02T08:23:57.131Z,16.52
2022-10-02T08:24:57.161Z,16.66
2022-10-02T08:25:57.186Z,16.68
2022-10-02T08:26:57.239Z,16.71
2022-10-02T08:27:57.292Z,16.79
2022-10-02T08:28:57.268Z,16.85
2022-10-02T08:29:57.290Z,16.89
2022-10-02T08:30:57.314Z,16.88
2022-10-02T08:31:57.437Z,16.96
2022-10-02T08:32:57.363Z,16.98
2022-10-02T08:33:57.387Z,16.98
2022-10-02T08:34:57.416Z,17.00
2022-10-02T08:35:57.444Z,17.00
2022-10-02T08:36:57.471Z,17.12
2022-10-02T08:37:57.497Z,17.15
2022-10-02T08:38:57.521Z,17.21
2022-10-02T08:39:57.551Z,17.23
2022-10-02T08:40:57.576Z,17.25
2022-10-02T08:41:57.603Z,17.28
2022-10-02T08:42:57.627Z,17.26
2022-10-02T08:43:57.653Z,17.25
2022-10-02T08:44:57.682Z,17.31
2022-10-02T08:45:57.770Z,17.41
2022-10-02T08:46:57.730Z,17.40
2022-10-02T08:47:57.758Z,17.22
2022-10-02T08:48:57.788Z,17.19
2022-10-02T08:49:57.810Z,17.18
2022-10-02T08:50:57.863Z,17.11
2022-10-02T08:51:57.866Z,17.06
2022-10-02T08:52:57.895Z,17.11
2022-10-02T08:53:57.918Z,17.25
2022-10-02T08:54:57.952Z,17.28
2022-10-02T08:55:57.971Z,17.48
2022-10-02T08:56:57.999Z,17.48
2022-10-02T08:57:58.019Z,17.66
2022-10-02T08:58:58.051Z,17.81
2022-10-02T08:59:58.079Z,17.71
2022-10-02T09:00:58.150Z,17.75
2022-10-02T09:02:00.070Z,17.81
2022-10-02T09:02:58.160Z,17.71
2022-10-02T09:03:58.184Z,17.68
2022-10-02T09:04:58.212Z,17.70
2022-10-02T09:05:58.239Z,17.68
2022-10-02T09:06:58.267Z,17.43
2022-10-02T09:07:58.292Z,17.43
2022-10-02T09:08:58.336Z,17.33
2022-10-02T09:09:58.344Z,17.46
2022-10-02T09:10:58.373Z,17.46
2022-10-02T09:11:58.395Z,17.26
2022-10-02T09:12:58.496Z,17.31
2022-10-02T09:13:58.452Z,17.26
2022-10-02T09:14:59.138Z,17.41
2022-10-02T09:15:58.603Z,17.41
2022-10-02T09:16:58.533Z,17.52
2022-10-02T09:17:58.555Z,17.51
2022-10-02T09:18:58.585Z,17.56
2022-10-02T09:19:58.612Z,17.58
2022-10-02T09:20:58.639Z,17.63
2022-10-02T09:21:58.660Z,17.71
2022-10-02T09:22:58.692Z,17.55
2022-10-02T09:23:58.716Z,17.52
2022-10-02T09:24:58.746Z,17.44
2022-10-02T09:25:58.774Z,17.51
2022-10-02T09:26:58.800Z,17.56
2022-10-02T09:27:58.863Z,17.58
2022-10-02T09:28:58.848Z,17.54
2022-10-02T09:29:58.878Z,17.71
2022-10-02T09:30:58.898Z,17.72
2022-10-02T09:31:58.955Z,17.71
2022-10-02T09:32:58.959Z,17.81
2022-10-02T09:33:58.985Z,17.96
2022-10-02T09:34:59.021Z,18.03
2022-10-02T09:35:59.066Z,18.11
2022-10-02T09:36:59.066Z,17.99
2022-10-02T09:37:59.092Z,17.95
2022-10-02T09:38:59.135Z,17.95
2022-10-02T09:39:59.183Z,17.97
2022-10-02T09:40:59.170Z,17.89
2022-10-02T09:41:59.197Z,17.75
2022-10-02T09:42:59.226Z,17.72
2022-10-02T09:43:59.253Z,17.70
2022-10-02T09:45:01.438Z,17.77
2022-10-02T09:45:59.365Z,17.71
2022-10-02T09:46:59.333Z,17.75
2022-10-02T09:47:59.357Z,17.86
2022-10-02T09:48:59.387Z,17.89
2022-10-02T09:49:59.413Z,17.78
2022-10-02T09:50:59.439Z,17.78
2022-10-02T09:51:59.461Z,17.66
2022-10-02T09:52:59.489Z,17.66
2022-10-02T09:53:59.518Z,17.52
2022-10-02T09:54:59.548Z,17.59
2022-10-02T09:55:59.571Z,17.52
2022-10-02T09:56:59.599Z,17.66
2022-10-02T09:57:59.625Z,17.79
2022-10-02T09:58:59.652Z,17.77
2022-10-02T09:59:59.690Z,18.00
2022-10-02T10:00:59.751Z,18.03
2022-10-02T10:01:59.788Z,18.12
2022-10-02T10:02:59.754Z,18.30
2022-10-02T10:03:59.786Z,18.23
2022-10-02T10:05:07.164Z,18.27
2022-10-02T10:05:59.844Z,18.45
2022-10-02T10:06:59.867Z,18.47
2022-10-02T10:07:59.892Z,18.55
2022-10-02T10:08:59.919Z,18.57
2022-10-02T10:09:59.950Z,18.55
2022-10-02T10:10:59.975Z,18.48
2022-10-02T10:12:00.003Z,18.47
2022-10-02T10:13:00.046Z,18.48
2022-10-02T10:14:00.058Z,18.37
2022-10-02T10:15:00.085Z,18.48
2022-10-02T10:16:00.192Z,18.47
2022-10-02T10:17:00.142Z,18.52
2022-10-02T10:18:00.164Z,18.78
2022-10-02T10:19:00.190Z,18.88
2022-10-02T10:20:00.238Z,18.99
2022-10-02T10:21:00.247Z,19.18
2022-10-02T10:22:00.275Z,19.29
2022-10-02T10:23:00.308Z,19.23
2022-10-02T10:24:00.329Z,19.23
2022-10-02T10:25:00.361Z,19.23
2022-10-02T10:26:00.385Z,19.18
2022-10-02T10:27:00.416Z,19.00
2022-10-02T10:28:00.490Z,18.95
2022-10-02T10:29:00.468Z,18.88
2022-10-02T10:30:00.500Z,18.92
2022-10-02T10:31:00.524Z,18.94
2022-10-02T10:32:00.570Z,19.08
2022-10-02T10:33:00.581Z,19.06
2022-10-02T10:34:00.618Z,19.18
2022-10-02T10:35:00.636Z,19.21
2022-10-02T10:36:00.666Z,19.22
2022-10-02T10:37:00.692Z,19.25
2022-10-02T10:38:00.720Z,19.29
2022-10-02T10:39:00.749Z,19.31
2022-10-02T10:40:00.777Z,19.31
2022-10-02T10:41:00.808Z,19.26
2022-10-02T10:42:00.832Z,19.21
2022-10-02T10:43:08.047Z,19.18
2022-10-02T10:44:00.884Z,19.07
2022-10-02T10:45:00.918Z,18.98
2022-10-02T10:46:01.039Z,18.84
2022-10-02T10:47:00.977Z,18.62
2022-10-02T10:48:01.010Z,18.54
2022-10-02T10:49:01.028Z,18.45
2022-10-02T10:50:01.056Z,18.48
2022-10-02T10:51:01.083Z,18.57
2022-10-02T10:52:01.112Z,18.51
2022-10-02T10:53:01.134Z,18.60
2022-10-02T10:54:02.193Z,18.75
2022-10-02T10:55:01.198Z,18.81
2022-10-02T10:56:01.221Z,18.87
2022-10-02T10:57:01.254Z,18.88
2022-10-02T10:58:01.284Z,18.85
2022-10-02T10:59:01.304Z,19.02
2022-10-02T11:00:01.331Z,18.95
2022-10-02T11:01:01.382Z,19.08
2022-10-02T11:02:01.441Z,19.16
2022-10-02T11:03:01.416Z,19.16
2022-10-02T11:04:01.449Z,19.32
2022-10-02T11:05:01.477Z,19.36
2022-10-02T11:06:01.498Z,19.43
2022-10-02T11:07:01.528Z,19.48
2022-10-02T11:08:01.564Z,19.50
2022-10-02T11:09:01.583Z,19.55
2022-10-02T11:10:01.616Z,19.56
2022-10-02T11:11:01.637Z,19.46
2022-10-02T11:12:04.232Z,19.44
2022-10-02T11:13:01.693Z,19.32
2022-10-02T11:14:01.724Z,19.37
2022-10-02T11:15:01.750Z,19.32
2022-10-02T11:16:01.818Z,19.26
2022-10-02T11:17:01.808Z,19.26
2022-10-02T11:18:08.991Z,19.13
2022-10-02T11:20:06.338Z,19.02
2022-10-02T11:21:05.905Z,18.92
2022-10-02T11:23:09.915Z,19.00
2022-10-02T11:24:09.909Z,19.25
2022-10-02T11:26:14.418Z,19.33
2022-10-02T11:27:13.953Z,19.39
2022-10-02T11:29:17.981Z,19.31
2022-10-02T11:30:18.007Z,19.37
2022-10-02T11:32:10.996Z,19.54
2022-10-02T11:33:10.952Z,19.46
2022-10-02T11:35:14.976Z,19.41
2022-10-02T11:36:14.999Z,19.43
2022-10-02T11:38:08.481Z,19.26
2022-10-02T11:39:08.246Z,19.19
2022-10-02T11:41:12.675Z,18.94
2022-10-02T11:42:12.703Z,18.92
2022-10-02T11:43:12.718Z,18.98
2022-10-02T11:44:12.743Z,18.99
2022-10-02T11:45:12.784Z,18.94
2022-10-02T11:46:12.830Z,18.82
2022-10-02T11:47:12.834Z,18.81
2022-10-02T11:48:12.861Z,18.87
2022-10-02T11:49:12.885Z,18.78
2022-10-02T11:50:12.916Z,18.67
2022-10-02T11:51:12.949Z,18.57
2022-10-02T11:52:12.969Z,18.60
2022-10-02T11:53:12.997Z,18.57
2022-10-02T11:54:13.022Z,18.51
2022-10-02T11:55:13.048Z,18.32
2022-10-02T11:56:13.081Z,18.33
2022-10-02T11:57:13.105Z,18.18
2022-10-02T11:58:13.142Z,18.29
2022-10-02T11:59:13.161Z,18.18
2022-10-02T12:00:13.185Z,18.11
2022-10-02T12:01:13.208Z,18.20
2022-10-02T12:02:16.313Z,18.12
2022-10-02T12:03:13.455Z,18.29
2022-10-02T12:04:13.293Z,18.30
2022-10-02T12:05:13.324Z,18.41
2022-10-02T12:06:13.348Z,18.45
2022-10-02T12:07:13.377Z,18.47
2022-10-02T12:08:13.398Z,18.55
2022-10-02T12:09:13.434Z,18.63
2022-10-02T12:10:13.463Z,18.70
2022-10-02T12:11:13.537Z,18.84
2022-10-02T12:12:13.514Z,18.88
2022-10-02T12:13:13.544Z,18.84
2022-10-02T12:14:13.568Z,18.84
2022-10-02T12:15:13.607Z,18.80
2022-10-02T12:16:13.654Z,18.75
2022-10-02T12:17:13.661Z,18.70
2022-10-02T12:18:16.121Z,18.72
2022-10-02T12:19:13.705Z,18.70
2022-10-02T12:20:13.732Z,18.75
2022-10-02T12:21:13.778Z,18.57
2022-10-02T12:22:13.786Z,18.48
2022-10-02T12:23:13.843Z,18.36
2022-10-02T12:24:13.908Z,18.27
2022-10-02T12:25:13.871Z,18.35
2022-10-02T12:26:13.982Z,18.21
2022-10-02T12:27:13.920Z,18.12
2022-10-02T12:28:14.003Z,18.14
2022-10-02T12:29:13.974Z,17.96
2022-10-02T12:30:14.011Z,17.90
2022-10-02T12:31:14.027Z,17.79
2022-10-02T12:32:14.099Z,17.77
2022-10-02T12:33:14.083Z,17.77
2022-10-02T12:34:14.119Z,17.84
2022-10-02T12:35:14.146Z,17.75
2022-10-02T12:36:14.163Z,17.77
2022-10-02T12:37:14.196Z,17.78
2022-10-02T12:38:14.220Z,17.86
2022-10-02T12:39:16.731Z,17.92
2022-10-02T12:40:14.269Z,17.99
2022-10-02T12:41:14.299Z,17.92
2022-10-02T12:42:14.327Z,18.02
2022-10-02T12:43:14.378Z,18.05
2022-10-02T12:44:14.379Z,18.03
2022-10-02T12:45:14.806Z,18.15
2022-10-02T12:46:14.507Z,18.21
2022-10-02T12:47:14.458Z,18.25
2022-10-02T12:48:14.480Z,18.25
2022-10-02T12:49:14.508Z,18.29
2022-10-02T12:50:14.534Z,18.30
2022-10-02T12:51:14.562Z,18.35
2022-10-02T12:52:14.591Z,18.32
2022-10-02T12:53:14.618Z,18.36
2022-10-02T12:54:14.643Z,18.39
2022-10-02T12:55:14.670Z,18.41
2022-10-02T12:56:14.691Z,18.30
2022-10-02T12:57:14.735Z,18.42
2022-10-02T12:58:14.749Z,18.39
2022-10-02T12:59:14.776Z,18.45
2022-10-02T13:00:14.799Z,18.39
2022-10-02T13:01:14.869Z,18.44